Nearby METAR Reports

 

KADS - Dallas/Addison, Texas, USA
Distance from station: SSE 13mi, 21km
Updated: Tue, 10-23-2018 9:47am CDT
Mostly cloudy
Mostly cloudy
 Wind from ENE
Wind: ENE 6 mph , 9 km/h
Temperature: 59°F , 15°C
Dew Point: 50°F , 10°C
Humidity: 72%
Barometer: 30.25 inHg , 1024.4 hPa
Clouds: Mostly cloudy
Visibility: 10 miles , 16 km
Cloud details: Mostly cloudy 11000 ft
2018/10/23 14:47 KADS 231447Z 07005KT 10SM BKN110 15/10 A3025
KTKI - Mckinney, Texas, USA
Distance from station: E 17mi, 27km
Updated: Tue, 10-23-2018 9:53am CDT
Clear
Clear
 Wind from calm
Wind: Calm
Temperature: 55°F , 13°C
Dew Point: 52°F , 11°C
Humidity: 88%
Barometer: 30.25 inHg , 1024.4 hPa
Clouds: Clear
Visibility: 10 miles , 16 km
2018/10/23 14:53 KTKI 231453Z 00000KT 10SM CLR 13/11 A3025 RMK AO2 SLP249 T01330111 51016
 
KDFW - Dallas/Ft Worth, Texas, USA
Distance from station: SSW 19mi, 30km
Updated: Tue, 10-23-2018 9:53am CDT
Mostly cloudy
Mostly cloudy
 Wind from SE
Wind: SE 3 mph , 6 km/h
Temperature: 61°F , 16°C
Dew Point: 50°F , 10°C
Humidity: 68%
Barometer: 30.23 inHg , 1023.7 hPa
Clouds: Mostly cloudy
Visibility: 10 miles , 16 km
Cloud details: Few Clouds 9500 ft
Mostly cloudy 14000 ft
Mostly cloudy 25000 ft
2018/10/23 14:53 KDFW 231453Z 14003KT 10SM FEW095 BKN140 BKN250 16/10 A3023 RMK AO2 SLP233 T01610100 52015
KDTO - Denton, Texas, USA
Distance from station: W 19mi, 31km
Updated: Tue, 10-23-2018 9:53am CDT
Clear
Clear
 Wind from E
Wind: E 3 mph , 6 km/h
Temperature: 61°F , 16°C
Dew Point: 52°F , 11°C
Humidity: 72%
Barometer: 30.25 inHg , 1024.4 hPa
Clouds: Clear
Visibility: 10 miles , 16 km
2018/10/23 14:53 KDTO 231453Z 10003KT 10SM CLR 16/11 A3025 RMK AO2 SLP240 T01560106 53017
 
KDAL - Dallas/Love Fld, Texas, USA
Distance from station: S 20mi, 33km
Updated: Tue, 10-23-2018 9:53am CDT
Mostly cloudy
Mostly cloudy
 Wind from E
Wind: E 5 mph , 7 km/h
Temperature: 61°F , 16°C
Dew Point: 52°F , 11°C
Humidity: 72%
Barometer: 30.24 inHg , 1024 hPa
Clouds: Mostly cloudy
Visibility: 10 miles , 16 km
Cloud details: Partly cloudy 12000 ft
Mostly cloudy 16000 ft
Mostly cloudy 25000 ft
2018/10/23 14:53 KDAL 231453Z 10004KT 10SM SCT120 BKN160 BKN250 16/11 A3024 RMK AO2 SLP237 T01610106 51015